Terminal Aerodrome Forecast
Issued by NWS

Current Version | Previous Version | Graphics & Text | Print | Product List | Glossary On
Versions: 1 2 3 4 5 6 7 8 9 10 11 12 13 14 15 16 17 18 19 20 21 22 23 24 25 26 27 28 29 30 31 32 33 34 35 36
579
FTUS41 KRNK 221735
TAFLWB
TAF
KLWB 221735Z 2218/2318 10004KT P6SM -SHRA OVC015
     FM222200 09005KT P6SM VCSH OVC008
     FM230000 08005KT 1SM BR VCSH OVC008
     FM230300 08010G25KT P6SM -SHRA OVC008
     FM230700 08010G18KT 4SM RA OVC015
     FM231200 09006KT 6SM -RA OVC003
     FM231500 07006KT P6SM -SHRA OVC015=

USA.gov is the U.S. government's official web portal to all federal, state and local government web resources and services.